Time;durP1;ratioP1;P1;durP2;ratioP2;P2;SDS_P1;SDS_P2;PMS_P1;PMS_P2;Temp;Humidity;BMP_temperature;BMP_pressure;BME280_temperature;BME280_humidity;BME280_pressure;Samples;Min_cycle;Max_cycle;Signal;HPM_P1;HPM_P2
2022/04/27 00:02:01;;;;;;;;;;;18.20;99.90;;;;;;4864250;29;20006;-84
2022/04/27 00:04:31;;;;;;;;;;;18.20;99.90;;;;;;4881016;29;19979;-84
2022/04/27 00:06:59;;;;;;;;;;;18.20;99.90;;;;;;4880069;29;19912;-85
2022/04/27 00:09:28;;;;;;;;;;;18.20;99.90;;;;;;4881125;29;19916;-81
2022/04/27 00:11:59;;;;;;;;;;;18.20;99.90;;;;;;4880858;29;19931;-85
2022/04/27 00:14:32;;;;;;;;;;;18.10;99.90;;;;;;4880920;29;19919;-78
2022/04/27 00:17:00;;;;;;;;;;;18.10;99.90;;;;;;4881316;29;19999;-79
2022/04/27 00:19:27;;;;;;;;;;;18.10;99.90;;;;;;4864137;29;19924;-80
2022/04/27 00:21:56;;;;;;;;;;;18.20;99.90;;;;;;4880541;29;20340;-78
2022/04/27 00:24:32;;;;;;;;;;;18.20;99.90;;;;;;4864230;29;19968;-80
2022/04/27 00:26:58;;;;;;;;;;;18.30;99.90;;;;;;4865221;29;19916;-84
2022/04/27 00:29:25;;;;;;;;;;;18.20;99.90;;;;;;4882020;29;19968;-79
2022/04/27 00:31:55;;;;;;;;;;;18.20;99.90;;;;;;4880963;29;19942;-85
2022/04/27 00:34:22;;;;;;;;;;;18.20;99.90;;;;;;4881145;29;19912;-80
2022/04/27 00:36:54;;;;;;;;;;;18.20;99.90;;;;;;4880721;29;19912;-81
2022/04/27 00:39:22;;;;;;;;;;;18.20;99.90;;;;;;4880650;29;19912;-79
2022/04/27 00:42:01;;;;;;;;;;;18.10;99.90;;;;;;4868849;29;20352;-82
2022/04/27 00:44:34;;;;;;;;;;;18.00;99.90;;;;;;4861425;29;20325;-83
2022/04/27 00:47:02;;;;;;;;;;;17.90;99.90;;;;;;4876519;29;19936;-84
2022/04/27 00:49:29;;;;;;;;;;;17.90;99.90;;;;;;4880581;29;19911;-84
2022/04/27 00:51:58;;;;;;;;;;;17.90;99.90;;;;;;4879259;29;19923;-85
2022/04/27 00:54:24;;;;;;;;;;;17.90;99.90;;;;;;4863965;29;19912;-74
2022/04/27 00:56:53;;;;;;;;;;;18.00;99.90;;;;;;4879899;29;19912;-81
2022/04/27 00:59:20;;;;;;;;;;;17.90;99.90;;;;;;4880537;29;20320;-81
2022/04/27 01:01:46;;;;;;;;;;;17.90;99.90;;;;;;4879306;29;19935;-77
2022/04/27 01:04:14;;;;;;;;;;;17.90;99.90;;;;;;4863432;29;19924;-75
2022/04/27 01:06:41;;;;;;;;;;;17.90;99.90;;;;;;4879183;29;19916;-76
2022/04/27 01:09:10;;;;;;;;;;;18.00;99.90;;;;;;4863458;29;20352;-76
2022/04/27 01:11:40;;;;;;;;;;;18.00;99.90;;;;;;4879499;29;19919;-82
2022/04/27 01:14:07;;;;;;;;;;;17.90;99.90;;;;;;4880029;29;19998;-77
2022/04/27 01:16:35;;;;;;;;;;;17.90;99.90;;;;;;4880148;29;19911;-74
2022/04/27 01:19:02;;;;;;;;;;;18.00;99.90;;;;;;4880295;29;19923;-84
2022/04/27 01:21:29;;;;;;;;;;;18.00;99.90;;;;;;4881709;29;19912;-84
2022/04/27 01:23:56;;;;;;;;;;;18.00;99.90;;;;;;4863436;29;19939;-82
2022/04/27 01:26:23;;;;;;;;;;;17.90;99.90;;;;;;4880022;29;19919;-84
2022/04/27 01:28:50;;;;;;;;;;;18.00;99.90;;;;;;4880240;29;20067;-75
2022/04/27 01:31:17;;;;;;;;;;;18.10;99.90;;;;;;4879834;29;19916;-75
2022/04/27 01:33:46;;;;;;;;;;;18.10;99.90;;;;;;4879682;29;20299;-78
2022/04/27 01:36:13;;;;;;;;;;;18.10;99.90;;;;;;4878753;29;19995;-83
2022/04/27 01:38:41;;;;;;;;;;;17.90;99.90;;;;;;4880467;29;19965;-82
2022/04/27 01:41:15;;;;;;;;;;;17.90;99.90;;;;;;4881376;29;20241;-82
2022/04/27 01:43:42;;;;;;;;;;;17.90;99.90;;;;;;4879843;29;19912;-82
2022/04/27 01:46:12;;;;;;;;;;;18.00;99.90;;;;;;4879750;29;20453;-84
2022/04/27 01:48:40;;;;;;;;;;;18.00;99.90;;;;;;4879913;29;20423;-85
2022/04/27 01:51:09;;;;;;;;;;;18.10;99.90;;;;;;4863164;29;19912;-81
2022/04/27 01:56:21;;;;;;;;;;;18.30;99.90;;;;;;4880489;29;19968;-84
2022/04/27 01:58:47;;;;;;;;;;;18.30;99.90;;;;;;4862779;29;19912;-86
2022/04/27 02:01:15;;;;;;;;;;;18.30;99.90;;;;;;4877759;29;19919;-84
2022/04/27 02:03:45;;;;;;;;;;;18.30;99.90;;;;;;4868057;29;19985;-86
2022/04/27 02:06:16;;;;;;;;;;;18.40;99.90;;;;;;4859533;29;19912;-85
2022/04/27 02:08:44;;;;;;;;;;;18.40;99.90;;;;;;4864612;29;20287;-84
2022/04/27 02:11:11;;;;;;;;;;;18.40;99.90;;;;;;4879557;29;19931;-85
2022/04/27 02:13:38;;;;;;;;;;;18.50;99.90;;;;;;4878583;29;19920;-86
2022/04/27 02:16:05;;;;;;;;;;;18.50;99.90;;;;;;4862808;29;19923;-85
2022/04/27 02:18:32;;;;;;;;;;;18.40;99.90;;;;;;4879607;29;19912;-85
2022/04/27 02:20:59;;;;;;;;;;;18.40;99.90;;;;;;4879220;29;19912;-84
2022/04/27 02:23:26;;;;;;;;;;;18.40;99.90;;;;;;4880235;29;20363;-85
2022/04/27 02:25:57;;;;;;;;;;;18.40;99.90;;;;;;4883094;29;19971;-87
2022/04/27 02:28:23;;;;;;;;;;;18.40;99.90;;;;;;4882965;29;19912;-80
2022/04/27 02:30:50;;;;;;;;;;;18.30;99.90;;;;;;4883276;29;20379;-83
2022/04/27 02:33:17;;;;;;;;;;;18.30;99.90;;;;;;4883473;29;19923;-82
2022/04/27 02:35:44;;;;;;;;;;;18.30;99.90;;;;;;4883387;29;19912;-86
2022/04/27 02:38:11;;;;;;;;;;;18.30;99.90;;;;;;4883498;29;19916;-85
2022/04/27 02:40:38;;;;;;;;;;;18.30;99.90;;;;;;4882884;29;19912;-84
2022/04/27 02:43:05;;;;;;;;;;;18.30;99.90;;;;;;4865981;29;19912;-83
2022/04/27 02:45:32;;;;;;;;;;;18.20;99.90;;;;;;4882308;29;19960;-77
2022/04/27 02:47:59;;;;;;;;;;;18.30;99.90;;;;;;4882843;29;19912;-78
2022/04/27 02:53:10;;;;;;;;;;;18.30;99.90;;;;;;4882626;29;19927;-79
2022/04/27 02:55:41;;;;;;;;;;;18.30;99.90;;;;;;4882413;29;19976;-78
2022/04/27 02:58:09;;;;;;;;;;;18.30;99.90;;;;;;4882448;29;19919;-80
2022/04/27 03:00:36;;;;;;;;;;;18.30;99.90;;;;;;4882287;29;19915;-79
2022/04/27 03:03:04;;;;;;;;;;;18.40;99.90;;;;;;4881912;29;19924;-82
2022/04/27 03:05:30;;;;;;;;;;;18.40;99.90;;;;;;4882191;29;20399;-80
2022/04/27 03:07:57;;;;;;;;;;;18.40;99.90;;;;;;4882151;29;19930;-80
2022/04/27 03:10:24;;;;;;;;;;;18.50;99.90;;;;;;4882270;29;19912;-83
2022/04/27 03:12:50;;;;;;;;;;;18.50;99.90;;;;;;4882077;29;20387;-82
2022/04/27 03:15:17;;;;;;;;;;;18.50;99.90;;;;;;4882124;29;19912;-83
2022/04/27 03:17:44;;;;;;;;;;;18.50;99.90;;;;;;4881960;29;19912;-82
2022/04/27 03:20:10;;;;;;;;;;;18.50;99.90;;;;;;4880886;29;19995;-83
2022/04/27 03:22:37;;;;;;;;;;;18.40;99.90;;;;;;4881930;29;20363;-83
2022/04/27 03:25:04;;;;;;;;;;;18.40;99.90;;;;;;4881997;29;19912;-83
2022/04/27 03:27:31;;;;;;;;;;;18.40;99.90;;;;;;4881726;29;19916;-82
2022/04/27 03:29:57;;;;;;;;;;;18.50;99.90;;;;;;4881653;29;19912;-83
2022/04/27 03:32:24;;;;;;;;;;;18.50;99.90;;;;;;4881530;29;20249;-83
2022/04/27 03:34:51;;;;;;;;;;;18.50;99.90;;;;;;4881340;29;19994;-82
2022/04/27 03:37:17;;;;;;;;;;;18.50;99.90;;;;;;4881704;29;19912;-83
2022/04/27 03:39:44;;;;;;;;;;;18.40;99.90;;;;;;4881307;29;20029;-82
2022/04/27 03:42:11;;;;;;;;;;;18.40;99.90;;;;;;4881690;29;20253;-83
2022/04/27 03:44:38;;;;;;;;;;;18.50;99.90;;;;;;4881491;29;19999;-82
2022/04/27 03:47:04;;;;;;;;;;;18.50;99.90;;;;;;4881506;29;19912;-78
2022/04/27 03:49:31;;;;;;;;;;;18.50;99.90;;;;;;4880091;29;19912;-82
2022/04/27 03:51:58;;;;;;;;;;;18.50;99.90;;;;;;4881219;29;20018;-80
2022/04/27 03:54:25;;;;;;;;;;;18.60;99.90;;;;;;4881274;29;19951;-83
2022/04/27 03:56:52;;;;;;;;;;;18.50;99.90;;;;;;4881209;29;19959;-82
2022/04/27 03:59:18;;;;;;;;;;;18.50;99.90;;;;;;4881196;29;20367;-83
2022/04/27 04:01:45;;;;;;;;;;;18.50;99.90;;;;;;4881177;29;20261;-82
2022/04/27 04:04:12;;;;;;;;;;;18.40;99.90;;;;;;4880840;29;19946;-82
2022/04/27 04:06:39;;;;;;;;;;;18.50;99.90;;;;;;4881149;29;19934;-80
2022/04/27 04:09:05;;;;;;;;;;;18.50;99.90;;;;;;4881160;29;19919;-81
2022/04/27 04:11:32;;;;;;;;;;;18.60;99.90;;;;;;4880609;29;19919;-81
2022/04/27 04:13:59;;;;;;;;;;;18.50;99.90;;;;;;4881025;29;19967;-80
2022/04/27 04:16:25;;;;;;;;;;;18.50;99.90;;;;;;4881022;29;19916;-80
2022/04/27 04:18:52;;;;;;;;;;;18.60;99.90;;;;;;4881138;29;19950;-81
2022/04/27 04:21:19;;;;;;;;;;;18.60;99.90;;;;;;4881072;29;19968;-79
2022/04/27 04:23:45;;;;;;;;;;;18.60;99.90;;;;;;4880752;29;19916;-80
2022/04/27 04:28:57;;;;;;;;;;;18.50;99.90;;;;;;4880827;29;19918;-79
2022/04/27 04:31:23;;;;;;;;;;;18.50;99.90;;;;;;4880903;29;19912;-83
2022/04/27 04:33:50;;;;;;;;;;;18.50;99.90;;;;;;4880460;29;19959;-82
2022/04/27 04:36:17;;;;;;;;;;;18.50;99.90;;;;;;4880719;29;19916;-82
2022/04/27 04:38:43;;;;;;;;;;;18.50;99.90;;;;;;4880637;29;19912;-80
2022/04/27 04:41:10;;;;;;;;;;;18.50;99.90;;;;;;4880607;29;20264;-81
2022/04/27 04:43:40;;;;;;;;;;;18.30;99.90;;;;;;4880220;29;20384;-79
2022/04/27 04:46:08;;;;;;;;;;;18.20;99.90;;;;;;4879875;29;19916;-80
2022/04/27 04:48:35;;;;;;;;;;;18.30;99.90;;;;;;4880291;29;20468;-81
2022/04/27 04:51:02;;;;;;;;;;;18.40;99.90;;;;;;4880254;29;19919;-81
2022/04/27 04:53:29;;;;;;;;;;;18.40;99.90;;;;;;4880342;29;19927;-79
2022/04/27 04:55:56;;;;;;;;;;;18.40;99.90;;;;;;4880204;29;20021;-80
2022/04/27 04:58:23;;;;;;;;;;;18.50;99.90;;;;;;4880271;29;19912;-81
2022/04/27 05:00:49;;;;;;;;;;;18.50;99.90;;;;;;4880265;29;20332;-81
2022/04/27 05:03:16;;;;;;;;;;;18.50;99.90;;;;;;4879926;29;20003;-80
2022/04/27 05:05:44;;;;;;;;;;;18.50;99.90;;;;;;4879955;29;19911;-80
2022/04/27 05:08:11;;;;;;;;;;;18.60;99.90;;;;;;4879906;29;19912;-77
2022/04/27 05:10:38;;;;;;;;;;;18.70;99.90;;;;;;4879951;29;19919;-81
2022/04/27 05:13:04;;;;;;;;;;;18.70;99.90;;;;;;4879779;29;19931;-81
2022/04/27 05:15:31;;;;;;;;;;;18.70;99.90;;;;;;4862521;29;19969;-81
2022/04/27 05:17:58;;;;;;;;;;;18.80;99.90;;;;;;4879996;29;19947;-82
2022/04/27 05:20:24;;;;;;;;;;;18.70;99.90;;;;;;4879869;29;19919;-81
2022/04/27 05:22:51;;;;;;;;;;;18.80;99.90;;;;;;4879959;29;20340;-81
2022/04/27 05:25:18;;;;;;;;;;;18.70;99.90;;;;;;4879939;29;20364;-83
2022/04/27 05:27:45;;;;;;;;;;;18.80;99.90;;;;;;4879470;29;19961;-77
2022/04/27 05:32:56;;;;;;;;;;;18.80;99.90;;;;;;4879752;29;19927;-79
2022/04/27 05:35:23;;;;;;;;;;;18.70;99.90;;;;;;4879952;29;19919;-78
2022/04/27 05:37:50;;;;;;;;;;;18.70;99.90;;;;;;4879619;29;19915;-76
2022/04/27 05:40:17;;;;;;;;;;;18.60;99.90;;;;;;4879653;29;19937;-76
2022/04/27 05:42:45;;;;;;;;;;;18.60;99.90;;;;;;4879468;29;19912;-75
2022/04/27 05:45:11;;;;;;;;;;;18.60;99.90;;;;;;4879753;29;19919;-75
2022/04/27 05:47:38;;;;;;;;;;;18.60;99.90;;;;;;4879471;29;19912;-76
2022/04/27 05:50:05;;;;;;;;;;;18.60;99.90;;;;;;4879717;29;19928;-79
2022/04/27 05:52:45;;;;;;;;;;;18.60;99.90;;;;;;4879671;29;19920;-82
2022/04/27 05:55:12;;;;;;;;;;;18.60;99.90;;;;;;4879635;29;19912;-80
2022/04/27 05:57:39;;;;;;;;;;;18.50;99.90;;;;;;4880358;29;20271;-77
2022/04/27 06:00:06;;;;;;;;;;;18.50;99.90;;;;;;4883435;29;20073;-82
2022/04/27 06:02:33;;;;;;;;;;;18.50;99.90;;;;;;4883396;29;20360;-84
2022/04/27 06:04:59;;;;;;;;;;;18.40;99.90;;;;;;4883171;29;19931;-80
2022/04/27 06:07:26;;;;;;;;;;;18.40;99.90;;;;;;4883249;29;19912;-83
2022/04/27 06:09:53;;;;;;;;;;;18.40;99.90;;;;;;4883163;29;20006;-81
2022/04/27 06:12:19;;;;;;;;;;;18.40;99.90;;;;;;4883262;29;20403;-82
2022/04/27 06:14:46;;;;;;;;;;;18.40;99.90;;;;;;4883154;29;19912;-79
2022/04/27 06:17:13;;;;;;;;;;;18.30;99.90;;;;;;4883083;29;19951;-80
2022/04/27 06:19:40;;;;;;;;;;;18.30;99.90;;;;;;4883164;29;20006;-80
2022/04/27 06:22:06;;;;;;;;;;;18.40;99.90;;;;;;4883122;29;19946;-77
2022/04/27 06:24:33;;;;;;;;;;;18.40;99.90;;;;;;4882946;29;20364;-81
2022/04/27 06:26:59;;;;;;;;;;;18.40;99.90;;;;;;4866334;29;19940;-78
2022/04/27 06:29:26;;;;;;;;;;;18.30;99.90;;;;;;4882953;29;19947;-78
2022/04/27 06:31:53;;;;;;;;;;;18.40;99.90;;;;;;4882650;29;19967;-83
2022/04/27 06:34:19;;;;;;;;;;;18.40;99.90;;;;;;4882837;29;19975;-78
2022/04/27 06:36:46;;;;;;;;;;;18.40;99.90;;;;;;4882832;29;19922;-77
2022/04/27 06:39:14;;;;;;;;;;;18.40;99.90;;;;;;4882852;29;19911;-75
2022/04/27 06:41:42;;;;;;;;;;;18.30;99.90;;;;;;4882466;29;19912;-73
2022/04/27 06:44:08;;;;;;;;;;;18.30;99.90;;;;;;4883097;29;19916;-75
2022/04/27 06:46:35;;;;;;;;;;;18.30;99.90;;;;;;4882642;29;19912;-74
2022/04/27 06:49:02;;;;;;;;;;;18.30;99.90;;;;;;4882615;29;19912;-76
2022/04/27 06:51:28;;;;;;;;;;;18.30;99.90;;;;;;4880743;29;19935;-77
2022/04/27 06:53:55;;;;;;;;;;;18.20;99.90;;;;;;4880313;29;20015;-74
2022/04/27 06:56:22;;;;;;;;;;;18.20;99.90;;;;;;4880388;29;19912;-74
2022/04/27 06:58:50;;;;;;;;;;;18.20;99.90;;;;;;4880343;29;20007;-74
2022/04/27 07:01:18;;;;;;;;;;;18.10;99.90;;;;;;4863302;29;20372;-75
2022/04/27 07:03:45;;;;;;;;;;;18.10;99.90;;;;;;4879875;29;19934;-74
2022/04/27 07:06:12;;;;;;;;;;;18.10;99.90;;;;;;4880041;29;20011;-74
2022/04/27 07:08:39;;;;;;;;;;;18.10;99.90;;;;;;4879590;29;20636;-74
2022/04/27 07:11:05;;;;;;;;;;;18.10;99.90;;;;;;4879900;29;19963;-74
2022/04/27 07:13:32;;;;;;;;;;;18.10;99.90;;;;;;4879445;29;19974;-76
2022/04/27 07:16:03;;;;;;;;;;;18.10;99.90;;;;;;4879883;29;19912;-74
2022/04/27 07:18:30;;;;;;;;;;;18.10;99.90;;;;;;4879363;29;20285;-75
2022/04/27 07:20:57;;;;;;;;;;;18.10;99.90;;;;;;4880029;29;19927;-76
2022/04/27 07:23:23;;;;;;;;;;;18.10;99.90;;;;;;4862770;29;19912;-74
2022/04/27 07:25:50;;;;;;;;;;;18.10;99.90;;;;;;4879212;29;20410;-74
2022/04/27 07:28:17;;;;;;;;;;;18.00;99.90;;;;;;4862649;29;20279;-76
2022/04/27 07:30:44;;;;;;;;;;;18.00;99.90;;;;;;4862532;29;20384;-74
2022/04/27 07:33:11;;;;;;;;;;;18.00;99.90;;;;;;4879652;29;20435;-77
2022/04/27 07:35:38;;;;;;;;;;;18.00;99.90;;;;;;4879345;29;19955;-75
2022/04/27 07:38:05;;;;;;;;;;;17.90;99.90;;;;;;4879486;29;19912;-75
2022/04/27 07:40:31;;;;;;;;;;;17.90;99.90;;;;;;4862435;29;19938;-75
2022/04/27 07:42:59;;;;;;;;;;;17.90;99.90;;;;;;4879345;29;19916;-77
2022/04/27 07:45:26;;;;;;;;;;;18.00;99.90;;;;;;4878960;29;19924;-74
2022/04/27 07:47:53;;;;;;;;;;;18.00;99.90;;;;;;4879237;29;19916;-78
2022/04/27 07:50:20;;;;;;;;;;;18.00;99.90;;;;;;4879262;29;19974;-78
2022/04/27 07:52:46;;;;;;;;;;;18.00;99.90;;;;;;4862476;29;19924;-74
2022/04/27 07:55:13;;;;;;;;;;;18.00;99.90;;;;;;4879239;29;19916;-75
2022/04/27 07:57:40;;;;;;;;;;;17.90;99.90;;;;;;4861701;29;20364;-76
2022/04/27 08:00:08;;;;;;;;;;;17.90;99.90;;;;;;4879334;29;19999;-81
2022/04/27 08:02:36;;;;;;;;;;;17.90;99.90;;;;;;4879163;29;19916;-79
2022/04/27 08:05:02;;;;;;;;;;;18.00;99.90;;;;;;4878969;29;19962;-76
2022/04/27 08:07:39;;;;;;;;;;;18.00;99.90;;;;;;4862211;29;19919;-76
2022/04/27 08:10:09;;;;;;;;;;;18.00;99.90;;;;;;4861736;29;19916;-80
2022/04/27 08:12:36;;;;;;;;;;;18.00;99.90;;;;;;4878754;29;19930;-75
2022/04/27 08:15:03;;;;;;;;;;;18.00;99.90;;;;;;4878766;29;20431;-80
2022/04/27 08:17:30;;;;;;;;;;;18.00;99.90;;;;;;4878764;29;19912;-80
2022/04/27 08:22:44;;;;;;;;;;;18.00;99.90;;;;;;4848491;29;19915;-78
2022/04/27 08:25:10;;;;;;;;;;;17.90;99.90;;;;;;4861978;29;20380;-77
2022/04/27 08:27:37;;;;;;;;;;;17.90;99.90;;;;;;4865322;29;20353;-74
2022/04/27 08:30:05;;;;;;;;;;;17.90;99.90;;;;;;4859541;29;19969;-77
2022/04/27 08:32:32;;;;;;;;;;;17.90;99.90;;;;;;4860103;29;19924;-77
2022/04/27 08:34:59;;;;;;;;;;;17.90;99.90;;;;;;4860196;29;19916;-75
2022/04/27 08:37:25;;;;;;;;;;;17.90;99.90;;;;;;4859823;29;19923;-79
2022/04/27 08:39:52;;;;;;;;;;;17.90;99.90;;;;;;4859863;29;19966;-76
2022/04/27 08:42:19;;;;;;;;;;;18.00;99.90;;;;;;4860299;29;19912;-77
2022/04/27 08:44:45;;;;;;;;;;;18.00;99.90;;;;;;4859361;29;19952;-76
2022/04/27 08:47:12;;;;;;;;;;;18.00;99.90;;;;;;4859987;29;19919;-78
2022/04/27 08:49:39;;;;;;;;;;;17.90;99.90;;;;;;4859244;29;20360;-84
2022/04/27 08:52:06;;;;;;;;;;;17.90;99.90;;;;;;4859574;29;20285;-79
2022/04/27 08:54:33;;;;;;;;;;;18.00;99.90;;;;;;4859317;29;19919;-80
2022/04/27 08:57:00;;;;;;;;;;;17.90;99.90;;;;;;4859402;29;19916;-80
2022/04/27 08:59:26;;;;;;;;;;;18.00;99.90;;;;;;4859341;29;19920;-77
2022/04/27 09:01:54;;;;;;;;;;;18.00;99.90;;;;;;4859071;29;19955;-80
2022/04/27 09:04:20;;;;;;;;;;;18.00;99.90;;;;;;4859054;29;20031;-79
2022/04/27 09:06:49;;;;;;;;;;;18.00;99.90;;;;;;4861576;29;19912;-81
2022/04/27 09:09:37;;;;;;;;;;;17.90;99.90;;;;;;4861465;29;19916;-82
2022/04/27 09:12:08;;;;;;;;;;;17.90;99.90;;;;;;4861188;29;19913;-81
2022/04/27 09:14:38;;;;;;;;;;;17.90;99.90;;;;;;4860826;29;19912;-80
2022/04/27 09:22:58;;;;;;;;;;;17.90;99.90;;;;;;4861475;29;19923;-79
2022/04/27 09:25:35;;;;;;;;;;;17.90;99.90;;;;;;4861527;29;20008;-76
2022/04/27 09:28:03;;;;;;;;;;;17.90;99.90;;;;;;4861160;29;19927;-75
2022/04/27 09:30:33;;;;;;;;;;;17.90;99.90;;;;;;4860850;29;19919;-75
2022/04/27 09:33:00;;;;;;;;;;;17.90;99.90;;;;;;4861109;29;19977;-75
2022/04/27 09:35:36;;;;;;;;;;;17.90;99.90;;;;;;4861201;29;19912;-78
2022/04/27 09:38:13;;;;;;;;;;;17.80;99.90;;;;;;4861236;29;19912;-75
2022/04/27 09:40:47;;;;;;;;;;;17.80;99.90;;;;;;4860915;29;19919;-74
2022/04/27 09:43:15;;;;;;;;;;;17.80;99.90;;;;;;4860923;29;19916;-75
2022/04/27 09:45:45;;;;;;;;;;;17.80;99.90;;;;;;4860859;29;19919;-77
2022/04/27 09:48:19;;;;;;;;;;;17.90;99.90;;;;;;4860953;29;20372;-78
2022/04/27 09:50:55;;;;;;;;;;;17.90;99.90;;;;;;4860980;29;19916;-79
2022/04/27 09:53:22;;;;;;;;;;;17.90;99.90;;;;;;4860991;29;19928;-78
2022/04/27 09:55:49;;;;;;;;;;;17.90;99.90;;;;;;4860708;29;19912;-77
2022/04/27 09:58:18;;;;;;;;;;;17.90;99.90;;;;;;4860399;29;19916;-80
2022/04/27 10:00:45;;;;;;;;;;;17.90;99.90;;;;;;4860944;29;19959;-83
2022/04/27 10:03:18;;;;;;;;;;;17.90;99.90;;;;;;4860719;29;19924;-79
2022/04/27 10:05:46;;;;;;;;;;;17.90;99.90;;;;;;4860698;29;20386;-76
2022/04/27 10:08:13;;;;;;;;;;;18.00;99.90;;;;;;4860944;29;20014;-75
2022/04/27 10:10:41;;;;;;;;;;;17.90;99.90;;;;;;4860868;29;19912;-75
2022/04/27 10:13:10;;;;;;;;;;;17.90;99.90;;;;;;4860229;29;19927;-75
2022/04/27 10:15:41;;;;;;;;;;;17.80;99.90;;;;;;4860489;29;19920;-83
2022/04/27 10:18:18;;;;;;;;;;;17.80;99.90;;;;;;4860912;29;19954;-83
2022/04/27 10:20:45;;;;;;;;;;;17.80;99.90;;;;;;4861023;29;20396;-80
2022/04/27 10:23:21;;;;;;;;;;;17.70;99.90;;;;;;4860923;29;19912;-81
2022/04/27 10:26:21;;;;;;;;;;;17.70;99.90;;;;;;4860740;29;19912;-81
2022/04/27 10:28:52;;;;;;;;;;;17.70;99.90;;;;;;4848964;29;19916;-81
2022/04/27 10:31:36;;;;;;;;;;;17.70;99.90;;;;;;4860705;29;19919;-83
2022/04/27 10:34:18;;;;;;;;;;;17.70;99.90;;;;;;4860707;29;19943;-82
2022/04/27 10:36:47;;;;;;;;;;;17.70;99.90;;;;;;4860725;29;19912;-82
2022/04/27 10:39:16;;;;;;;;;;;17.80;99.90;;;;;;4860693;29;19916;-81
2022/04/27 10:41:48;;;;;;;;;;;17.80;99.90;;;;;;4860494;29;19912;-84
2022/04/27 10:44:15;;;;;;;;;;;17.80;99.90;;;;;;4860604;29;19947;-77
2022/04/27 10:46:44;;;;;;;;;;;17.70;99.90;;;;;;4864124;29;19920;-80
2022/04/27 10:49:23;;;;;;;;;;;17.70;99.90;;;;;;4864040;29;20004;-83
2022/04/27 10:52:00;;;;;;;;;;;17.70;99.90;;;;;;4863690;29;19912;-82
2022/04/27 10:54:31;;;;;;;;;;;17.70;99.90;;;;;;4863897;29;20028;-81
2022/04/27 10:57:30;;;;;;;;;;;17.80;99.90;;;;;;4863816;29;20391;-80
2022/04/27 10:59:59;;;;;;;;;;;17.80;99.90;;;;;;4852644;29;19919;-78
2022/04/27 11:02:37;;;;;;;;;;;17.80;99.90;;;;;;4863640;29;19923;-78
2022/04/27 11:05:05;;;;;;;;;;;17.90;99.90;;;;;;4863732;29;19931;-76
2022/04/27 11:07:32;;;;;;;;;;;17.90;99.90;;;;;;4863547;29;20356;-79
2022/04/27 11:10:04;;;;;;;;;;;17.90;99.90;;;;;;4863722;29;19960;-77
2022/04/27 11:12:33;;;;;;;;;;;17.90;99.90;;;;;;4861583;29;20295;-78
2022/04/27 11:14:59;;;;;;;;;;;17.90;99.90;;;;;;4863535;29;19959;-77
2022/04/27 11:17:29;;;;;;;;;;;17.90;99.90;;;;;;4863529;29;19939;-80
2022/04/27 11:19:56;;;;;;;;;;;18.00;99.90;;;;;;4861989;29;19916;-74
2022/04/27 11:22:22;;;;;;;;;;;17.90;99.90;;;;;;4861436;29;19919;-76
2022/04/27 11:24:49;;;;;;;;;;;17.90;99.90;;;;;;4861177;29;19913;-76
2022/04/27 11:27:23;;;;;;;;;;;17.90;99.90;;;;;;4860714;29;19916;-79
2022/04/27 11:29:51;;;;;;;;;;;17.80;99.90;;;;;;4861064;29;19916;-75
2022/04/27 11:32:18;;;;;;;;;;;17.80;99.90;;;;;;4860775;29;19924;-76
2022/04/27 11:34:48;;;;;;;;;;;17.80;99.90;;;;;;4861144;29;20185;-75
2022/04/27 11:37:16;;;;;;;;;;;17.80;99.90;;;;;;4861057;29;19956;-77
2022/04/27 11:39:44;;;;;;;;;;;17.70;99.90;;;;;;4860913;29;20068;-77
2022/04/27 11:42:12;;;;;;;;;;;17.70;99.90;;;;;;4860375;29;19927;-77
2022/04/27 11:44:40;;;;;;;;;;;17.70;99.90;;;;;;4861057;29;20447;-80
2022/04/27 11:47:33;;;;;;;;;;;17.70;99.90;;;;;;4860515;29;20065;-81
2022/04/27 11:50:00;;;;;;;;;;;17.70;99.90;;;;;;4859668;29;19960;-81
2022/04/27 11:52:28;;;;;;;;;;;17.70;99.90;;;;;;4861018;29;19924;-80
2022/04/27 11:55:01;;;;;;;;;;;17.80;99.90;;;;;;4860758;29;19972;-78
2022/04/27 11:57:27;;;;;;;;;;;17.80;99.90;;;;;;4860032;29;19951;-82
2022/04/27 11:59:57;;;;;;;;;;;17.80;99.90;;;;;;4860132;29;19929;-83
2022/04/27 12:02:26;;;;;;;;;;;17.80;99.90;;;;;;4860480;29;19923;-82
2022/04/27 12:05:02;;;;;;;;;;;17.80;99.90;;;;;;4860374;29;20395;-79
2022/04/27 12:07:38;;;;;;;;;;;17.80;99.90;;;;;;4859227;29;20003;-84
2022/04/27 12:10:07;;;;;;;;;;;17.80;99.90;;;;;;4860386;29;19935;-83
2022/04/27 12:12:34;;;;;;;;;;;17.80;99.90;;;;;;4859401;29;19932;-78
2022/04/27 12:15:07;;;;;;;;;;;17.80;99.90;;;;;;4860846;29;20056;-81
2022/04/27 12:17:46;;;;;;;;;;;17.80;99.90;;;;;;4860307;29;20436;-83
2022/04/27 12:20:27;;;;;;;;;;;17.90;99.90;;;;;;4860321;29;19938;-84
2022/04/27 12:22:53;;;;;;;;;;;17.90;99.90;;;;;;4860670;29;20010;-85
2022/04/27 12:25:20;;;;;;;;;;;17.90;99.90;;;;;;4859891;29;20276;-82
2022/04/27 12:27:48;;;;;;;;;;;17.90;99.90;;;;;;4859405;29;19919;-75
2022/04/27 12:30:19;;;;;;;;;;;17.90;99.90;;;;;;4860350;29;19964;-75
2022/04/27 12:32:46;;;;;;;;;;;17.90;99.90;;;;;;4860083;29;20046;-82
2022/04/27 12:38:07;;;;;;;;;;;17.90;99.90;;;;;;4859695;29;20404;-83
2022/04/27 12:40:34;;;;;;;;;;;17.90;99.90;;;;;;4859799;29;20007;-82
2022/04/27 12:43:07;;;;;;;;;;;17.90;99.90;;;;;;4859366;29;19912;-84
2022/04/27 12:45:34;;;;;;;;;;;17.90;99.90;;;;;;4859713;29;20007;-81
2022/04/27 12:48:01;;;;;;;;;;;17.90;99.90;;;;;;4859785;29;19920;-81
2022/04/27 12:50:29;;;;;;;;;;;17.90;99.90;;;;;;4859772;29;19978;-77
2022/04/27 12:53:09;;;;;;;;;;;17.90;99.90;;;;;;4859306;29;19928;-81
2022/04/27 12:55:36;;;;;;;;;;;17.90;99.90;;;;;;4859298;29;19923;-80
2022/04/27 12:58:03;;;;;;;;;;;17.90;99.90;;;;;;4859023;29;19912;-80
2022/04/27 13:00:40;;;;;;;;;;;17.90;99.90;;;;;;4860044;29;19944;-79
2022/04/27 13:03:09;;;;;;;;;;;17.90;99.90;;;;;;4859398;29;19951;-81
2022/04/27 13:05:37;;;;;;;;;;;17.80;99.90;;;;;;4859115;29;19916;-81
2022/04/27 13:08:07;;;;;;;;;;;17.80;99.90;;;;;;4859278;29;19912;-81
2022/04/27 13:13:19;;;;;;;;;;;17.80;99.90;;;;;;4878037;29;20276;-81
2022/04/27 13:15:46;;;;;;;;;;;17.80;99.90;;;;;;4877549;29;19922;-86
2022/04/27 13:18:18;;;;;;;;;;;17.80;99.90;;;;;;4877618;29;19959;-77
2022/04/27 13:20:48;;;;;;;;;;;17.80;99.90;;;;;;4877977;29;19912;-86
2022/04/27 13:23:15;;;;;;;;;;;17.80;99.90;;;;;;4877980;29;19919;-76
2022/04/27 13:25:42;;;;;;;;;;;17.90;99.90;;;;;;4877545;29;19963;-81
2022/04/27 13:28:08;;;;;;;;;;;17.80;99.90;;;;;;4877684;29;19916;-83
2022/04/27 13:30:35;;;;;;;;;;;17.80;99.90;;;;;;4877415;29;20010;-83
2022/04/27 13:33:02;;;;;;;;;;;17.90;99.90;;;;;;4877826;29;19927;-85
2022/04/27 13:35:29;;;;;;;;;;;17.80;99.90;;;;;;4877835;29;19959;-84
2022/04/27 13:37:55;;;;;;;;;;;17.70;99.90;;;;;;4877692;29;20264;-81
2022/04/27 13:40:22;;;;;;;;;;;17.70;99.90;;;;;;4877352;29;19912;-83
2022/04/27 13:42:49;;;;;;;;;;;17.60;99.90;;;;;;4877771;29;19964;-75
2022/04/27 13:45:16;;;;;;;;;;;17.60;99.90;;;;;;4876159;29;20334;-76
2022/04/27 13:47:43;;;;;;;;;;;17.60;99.90;;;;;;4877384;29;20036;-76
2022/04/27 13:50:10;;;;;;;;;;;17.60;99.90;;;;;;4877643;29;19951;-75
2022/04/27 13:52:38;;;;;;;;;;;17.60;99.90;;;;;;4877404;29;19920;-74
2022/04/27 13:55:06;;;;;;;;;;;17.60;99.90;;;;;;4877393;29;20364;-74
2022/04/27 13:57:33;;;;;;;;;;;17.60;99.90;;;;;;4876840;29;20291;-74
2022/04/27 14:00:00;;;;;;;;;;;17.60;99.90;;;;;;4877409;29;19922;-74
2022/04/27 14:02:26;;;;;;;;;;;17.50;99.90;;;;;;4877465;29;19916;-74
2022/04/27 14:04:55;;;;;;;;;;;17.50;99.90;;;;;;4877200;29;20010;-73
2022/04/27 14:07:22;;;;;;;;;;;17.40;99.90;;;;;;4877309;29;19912;-74
2022/04/27 14:09:49;;;;;;;;;;;17.40;99.90;;;;;;4876876;29;20372;-74
2022/04/27 14:15:00;;;;;;;;;;;17.40;99.90;;;;;;4877744;29;19932;-73
2022/04/27 14:20:11;;;;;;;;;;;17.40;99.90;;;;;;4879787;29;20268;-74
2022/04/27 14:22:38;;;;;;;;;;;17.40;99.90;;;;;;4880735;29;19912;-74
2022/04/27 14:25:06;;;;;;;;;;;17.40;99.90;;;;;;4880838;29;19912;-74
2022/04/27 14:27:33;;;;;;;;;;;17.40;99.90;;;;;;4880787;29;19911;-73
2022/04/27 14:29:59;;;;;;;;;;;17.40;99.90;;;;;;4880866;29;19912;-74
2022/04/27 14:32:26;;;;;;;;;;;17.30;99.90;;;;;;4880784;29;19924;-73
2022/04/27 14:34:53;;;;;;;;;;;17.30;99.90;;;;;;4880915;29;20409;-73
2022/04/27 14:37:20;;;;;;;;;;;17.30;99.90;;;;;;4880539;29;19912;-74
2022/04/27 14:39:46;;;;;;;;;;;17.20;99.90;;;;;;4880327;29;19926;-74
2022/04/27 14:42:13;;;;;;;;;;;17.20;99.90;;;;;;4880685;29;19931;-75
2022/04/27 14:44:39;;;;;;;;;;;17.20;99.90;;;;;;4880797;29;19964;-73
2022/04/27 14:47:06;;;;;;;;;;;17.10;99.90;;;;;;4880511;29;19922;-75
2022/04/27 14:49:33;;;;;;;;;;;17.20;99.90;;;;;;4878710;29;20317;-74
2022/04/27 14:52:00;;;;;;;;;;;17.10;99.90;;;;;;4880479;29;19918;-74
2022/04/27 14:54:26;;;;;;;;;;;17.20;99.90;;;;;;4880476;29;20008;-74